Terminal Aerodrome Forecast
Issued by NWS

Home | Current Version | Previous Version | Text Only | Print | Product List | Glossary On
Versions: 1 2 3 4 5 6 7 8 9 10 11 12 13 14
000
FTUS42 KMLB 291130
TAFTIX
TAF
KTIX 291130Z 2912/3012 08008KT P6SM FEW040
     FM291400 07011KT P6SM BKN040
     FM291800 06013KT P6SM SCT040
     FM300100 08005KT P6SM SCT035=

USA.gov is the U.S. government's official web portal to all federal, state and local government web resources and services.